Search for airport 
image banner adimage banner adimage banner ad
image banner ad

PA35 - Area 52

Located in Bally, United States

ICAO - PA35, IATA -

Data provided by Airmate  

General information

Coordinates: N40°25'55" W75°37'34"
Elevation is 660 feet MSL.
Magnetic variation is -11° East
View others Airports in Pennsylvania

Operational data

Special qualification required
Current time UTC:
Current local time:
Weather at : KXLL - Allentown Queen City Muni ( 19 km )
METAR: KXLL 071235Z AUTO 05006KT 10SM CLR 11/00 A2994 RMK AO2
View NOTAMs / SUP AIP / TFR affecting this airport [VIEW]
Communications frequencies: [VIEW]

Runways:

RWY identifierQFULength (ft)Width (ft)SurfaceLDA (ft)
13220050ASPH
31220050ASPH

Airport contact information

Address: Bally United States

Satellite view of PA35